Time;durP1;ratioP1;P1;durP2;ratioP2;P2;SDS_P1;SDS_P2;PMS_P1;PMS_P2;Temp;Humidity;BMP_temperature;BMP_pressure;BME280_temperature;BME280_humidity;BME280_pressure;Samples;Min_cycle;Max_cycle;Signal;HPM_P1;HPM_P2
2023/02/17 00:01:34;;;;;;;;;;;;;;;5.36;79.06;101210.88;104937;1290;72974;-74
2023/02/17 00:04:20;;;;;;;;;;;;;;;5.37;79.12;101203.70;105096;1289;61766;-74
2023/02/17 00:07:07;;;;;;;;;;;;;;;5.37;79.12;101199.94;105112;1289;61250;-74
2023/02/17 00:09:53;;;;;;;;;;;;;;;5.37;79.10;101196.02;105138;1288;73240;-75
2023/02/17 00:12:39;;;;;;;;;;;;;;;5.37;79.17;101187.64;105096;1292;68586;-75
2023/02/17 00:15:25;;;;;;;;;;;;;;;5.38;79.12;101186.28;105140;1292;73594;-75
2023/02/17 00:18:11;;;;;;;;;;;;;;;5.38;79.11;101186.30;105086;1288;62289;-75
2023/02/17 00:20:57;;;;;;;;;;;;;;;5.40;79.13;101190.92;105096;1289;59677;-75
2023/02/17 00:23:44;;;;;;;;;;;;;;;5.40;79.13;101186.65;105102;1290;74801;-75
2023/02/17 00:26:31;;;;;;;;;;;;;;;5.40;79.07;101182.21;105135;1288;69432;-75
2023/02/17 00:29:17;;;;;;;;;;;;;;;5.41;79.13;101180.70;105092;1290;73618;-75
2023/02/17 00:32:03;;;;;;;;;;;;;;;5.41;79.10;101179.66;105108;1290;62060;-75
2023/02/17 00:34:50;;;;;;;;;;;;;;;5.41;79.07;101182.92;105179;1290;61506;-75
2023/02/17 00:37:37;;;;;;;;;;;;;;;5.42;79.12;101186.69;105163;1289;74122;-75
2023/02/17 00:40:23;;;;;;;;;;;;;;;5.42;79.08;101185.66;105875;1289;66463;-75
2023/02/17 00:43:09;;;;;;;;;;;;;;;5.43;79.09;101183.62;105049;1293;71405;-75
2023/02/17 00:45:55;;;;;;;;;;;;;;;5.43;79.11;101188.08;105098;1289;61055;-75
2023/02/17 00:48:41;;;;;;;;;;;;;;;5.44;79.08;101188.59;105157;1292;63456;-74
2023/02/17 00:51:28;;;;;;;;;;;;;;;5.44;79.09;101180.91;105004;1289;74145;-74
2023/02/17 00:54:14;;;;;;;;;;;;;;;5.44;79.04;101178.52;105200;1289;69285;-74
2023/02/17 00:57:00;;;;;;;;;;;;;;;5.45;79.08;101177.83;105099;1288;73233;-74
2023/02/17 00:59:46;;;;;;;;;;;;;;;5.44;79.09;101177.83;105115;1289;59225;-74
2023/02/17 01:02:32;;;;;;;;;;;;;;;5.45;79.12;101175.79;105211;1288;61286;-74
2023/02/17 01:05:19;;;;;;;;;;;;;;;5.45;79.05;101174.76;105123;1289;79323;-74
2023/02/17 01:08:05;;;;;;;;;;;;;;;5.45;79.04;101167.91;105170;1288;68628;-74
2023/02/17 01:10:51;;;;;;;;;;;;;;;5.45;79.01;101166.55;105157;1291;74863;-74
2023/02/17 01:13:37;;;;;;;;;;;;;;;5.44;79.02;101161.59;105093;1289;61309;-74
2023/02/17 01:16:25;;;;;;;;;;;;;;;5.45;79.07;101157.48;104998;1288;59646;-75
2023/02/17 01:19:12;;;;;;;;;;;;;;;5.45;79.03;101149.98;105137;1292;73410;-75
2023/02/17 01:21:59;;;;;;;;;;;;;;;5.45;79.03;101144.84;105124;1288;69222;-75
2023/02/17 01:24:45;;;;;;;;;;;;;;;5.46;79.04;101138.52;105025;1288;73998;-74
2023/02/17 01:27:31;;;;;;;;;;;;;;;5.46;79.03;101132.20;105018;1289;61163;-75
2023/02/17 01:30:17;;;;;;;;;;;;;;;5.46;79.08;101130.33;105130;1290;61419;-73
2023/02/17 01:33:04;;;;;;;;;;;;;;;5.46;79.05;101128.27;105185;1288;76486;-74
2023/02/17 01:35:50;;;;;;;;;;;;;;;5.47;79.06;101122.13;105066;1291;68801;-74
2023/02/17 01:38:36;;;;;;;;;;;;;;;5.48;79.02;101118.36;105206;1287;71434;-74
2023/02/17 01:41:25;;;;;;;;;;;;;;;5.48;79.05;101117.52;104996;1289;61225;-73
2023/02/17 01:44:14;;;;;;;;;;;;;;;5.49;79.02;101113.95;105141;1288;61214;-72
2023/02/17 01:47:00;;;;;;;;;;;;;;;5.48;79.00;101110.02;105052;1288;74055;-72
2023/02/17 01:49:47;;;;;;;;;;;;;;;5.48;79.01;101106.41;105035;1288;72575;-72
2023/02/17 01:52:33;;;;;;;;;;;;;;;5.48;79.02;101103.33;105176;1288;71375;-72
2023/02/17 01:55:20;;;;;;;;;;;;;;;5.48;78.98;101099.05;105069;1288;62443;-74
2023/02/17 01:58:07;;;;;;;;;;;;;;;5.48;79.03;101095.81;105208;1288;61205;-74
2023/02/17 02:00:56;;;;;;;;;;;;;;;5.48;79.02;101088.63;105157;1292;73329;-74
2023/02/17 02:03:42;;;;;;;;;;;;;;;5.49;78.97;101088.13;105129;1292;67800;-74
2023/02/17 02:06:29;;;;;;;;;;;;;;;5.49;79.01;101085.05;105119;1289;71266;-74
2023/02/17 02:09:28;;;;;;;;;;;;;;;5.50;79.01;101081.64;105116;1289;61235;-74
2023/02/17 02:12:19;;;;;;;;;;;;;;;5.50;79.01;101079.92;105086;1290;59403;-74
2023/02/17 02:15:08;;;;;;;;;;;;;;;5.50;79.05;101079.24;105144;1288;73341;-74
2023/02/17 02:17:54;;;;;;;;;;;;;;;5.50;79.02;101076.34;105106;1292;67294;-75
2023/02/17 02:20:40;;;;;;;;;;;;;;;5.51;79.04;101078.23;105217;1290;74124;-75
2023/02/17 02:23:41;;;;;;;;;;;;;;;5.51;78.97;101073.62;105122;1291;61206;-74
2023/02/17 02:26:30;;;;;;;;;;;;;;;5.52;79.01;101067.98;105063;1292;61136;-74
2023/02/17 02:29:19;;;;;;;;;;;;;;;5.52;79.00;101066.79;105142;1290;77701;-74
2023/02/17 02:32:24;;;;;;;;;;;;;;;5.52;79.01;101066.10;105190;1288;68441;-74
2023/02/17 02:35:13;;;;;;;;;;;;;;;5.53;79.03;101063.89;105141;1288;71278;-74
2023/02/17 02:38:03;;;;;;;;;;;;;;;5.53;79.03;101058.94;105060;1288;61928;-74
2023/02/17 02:40:53;;;;;;;;;;;;;;;5.54;78.96;101052.10;105139;1288;59457;-75
2023/02/17 02:43:40;;;;;;;;;;;;;;;5.54;78.97;101048.52;105003;1293;74593;-75
2023/02/17 02:46:26;;;;;;;;;;;;;;;5.55;79.00;101049.55;105005;1288;67008;-75
2023/02/17 02:49:12;;;;;;;;;;;;;;;5.55;78.98;101044.95;105001;1293;74035;-75
2023/02/17 02:51:59;;;;;;;;;;;;;;;5.56;78.99;101043.92;104917;1288;312061;-74
2023/02/17 02:54:45;;;;;;;;;;;;;;;5.56;78.97;101040.68;105247;1288;62863;-74
2023/02/17 02:58:00;;;;;;;;;;;;;;;5.56;78.96;101040.33;105080;1290;74670;-74
2023/02/17 03:00:52;;;;;;;;;;;;;;;5.57;78.99;101037.77;104446;1297;67970;-74
2023/02/17 03:03:47;;;;;;;;;;;;;;;5.56;79.03;101034.18;104406;1296;72128;-74
2023/02/17 03:07:03;;;;;;;;;;;;;;;5.57;79.00;101032.65;104412;1297;59216;-74
2023/02/17 03:09:56;;;;;;;;;;;;;;;5.57;78.99;101032.30;104073;1296;59639;-74
2023/02/17 03:12:42;;;;;;;;;;;;;;;5.57;79.01;101030.59;104416;1300;73723;-74
2023/02/17 03:15:30;;;;;;;;;;;;;;;5.57;79.01;101029.06;104425;1296;67923;-74
2023/02/17 03:18:17;;;;;;;;;;;;;;;5.57;79.03;101029.57;104373;1296;71204;-74
2023/02/17 03:21:05;;;;;;;;;;;;;;;5.56;79.03;101028.20;104365;1296;60032;-74
2023/02/17 03:23:52;;;;;;;;;;;;;;;5.56;79.06;101021.70;104413;1296;61654;-74
2023/02/17 03:26:38;;;;;;;;;;;;;;;5.56;79.01;101021.52;104432;1301;73415;-74
2023/02/17 03:29:24;;;;;;;;;;;;;;;5.56;79.04;101014.34;104452;1296;67965;-74
2023/02/17 03:32:10;;;;;;;;;;;;;;;5.56;79.08;101009.89;104451;1296;71098;-74
2023/02/17 03:34:56;;;;;;;;;;;;;;;5.56;79.07;101006.13;104383;1301;61393;-74
2023/02/17 03:37:42;;;;;;;;;;;;;;;5.56;79.04;101009.05;104870;1288;61147;-74
2023/02/17 03:40:29;;;;;;;;;;;;;;;5.55;79.09;101004.77;105031;1293;73804;-74
2023/02/17 03:43:15;;;;;;;;;;;;;;;5.55;79.06;101000.30;105158;1288;67260;-75
2023/02/17 03:46:01;;;;;;;;;;;;;;;5.54;79.06;100995.50;105102;1288;72032;-75
2023/02/17 03:48:47;;;;;;;;;;;;;;;5.53;79.06;100994.30;105103;1288;61296;-75
2023/02/17 03:51:33;;;;;;;;;;;;;;;5.52;79.05;100988.31;105161;1287;61139;-75
2023/02/17 03:54:19;;;;;;;;;;;;;;;5.53;79.12;100983.18;105125;1288;72682;-75
2023/02/17 03:57:05;;;;;;;;;;;;;;;5.53;79.12;100981.30;105090;1288;70055;-73
2023/02/17 03:59:51;;;;;;;;;;;;;;;5.53;79.14;100976.86;105000;1289;72565;-73
2023/02/17 04:02:37;;;;;;;;;;;;;;;5.53;79.17;100972.23;105009;1288;61273;-73
2023/02/17 04:05:24;;;;;;;;;;;;;;;5.53;79.19;100975.48;105118;1288;61120;-73
2023/02/17 04:08:10;;;;;;;;;;;;;;;5.53;79.25;100977.55;105160;1287;73554;-73
2023/02/17 04:10:58;;;;;;;;;;;;;;;5.54;79.31;100977.05;105055;1288;67272;-72
2023/02/17 04:13:44;;;;;;;;;;;;;;;5.53;79.34;100978.41;105127;1292;72625;-72
2023/02/17 04:16:30;;;;;;;;;;;;;;;5.53;79.33;100975.66;105005;1293;61282;-72
2023/02/17 04:19:16;;;;;;;;;;;;;;;5.53;79.36;100978.73;104941;1288;61214;-72
2023/02/17 04:22:03;;;;;;;;;;;;;;;5.53;79.42;100970.36;105013;1288;73327;-72
2023/02/17 04:24:49;;;;;;;;;;;;;;;5.52;79.54;100965.91;105122;1288;67817;-73
2023/02/17 04:27:35;;;;;;;;;;;;;;;5.51;79.47;100957.35;104930;1288;71309;-73
2023/02/17 04:30:21;;;;;;;;;;;;;;;5.50;79.49;100951.86;105031;1292;59437;-73
2023/02/17 04:33:07;;;;;;;;;;;;;;;5.48;79.48;100949.80;105019;1288;61245;-73
2023/02/17 04:35:58;;;;;;;;;;;;;;;5.47;79.48;100940.04;105076;1289;76079;-73
2023/02/17 04:38:44;;;;;;;;;;;;;;;5.46;79.47;100939.34;105019;1288;69999;-73
2023/02/17 04:41:30;;;;;;;;;;;;;;;5.45;79.57;100934.37;105087;1288;74019;-72
2023/02/17 04:44:16;;;;;;;;;;;;;;;5.43;79.56;100934.87;104952;1288;61290;-73
2023/02/17 04:47:03;;;;;;;;;;;;;;;5.43;79.55;100931.10;105076;1292;61227;-73
2023/02/17 04:49:49;;;;;;;;;;;;;;;5.43;79.65;100928.20;105043;1288;74069;-73
2023/02/17 04:52:35;;;;;;;;;;;;;;;5.43;79.68;100921.70;105089;1294;67330;-73
2023/02/17 04:55:21;;;;;;;;;;;;;;;5.42;79.64;100918.78;105096;1288;72168;-73
2023/02/17 04:58:07;;;;;;;;;;;;;;;5.41;79.67;100912.27;105127;1288;60142;-73
2023/02/17 05:00:57;;;;;;;;;;;;;;;5.40;79.66;100911.41;105075;1288;61348;-73
2023/02/17 05:03:43;;;;;;;;;;;;;;;5.39;79.69;100910.38;104929;1288;75800;-73
2023/02/17 05:06:29;;;;;;;;;;;;;;;5.39;79.77;100906.61;104995;1291;67547;-73
2023/02/17 05:09:15;;;;;;;;;;;;;;;5.39;79.81;100899.95;105084;1288;72294;-73
2023/02/17 05:12:04;;;;;;;;;;;;;;;5.38;79.78;100899.77;105053;1292;61378;-73
2023/02/17 05:14:50;;;;;;;;;;;;;;;5.38;79.83;100903.70;105128;1288;61275;-73
2023/02/17 05:17:36;;;;;;;;;;;;;;;5.37;79.83;100898.05;105059;1288;72284;-72
2023/02/17 05:20:22;;;;;;;;;;;;;;;5.37;79.86;100903.69;105120;1292;69002;-72
2023/02/17 05:23:08;;;;;;;;;;;;;;;5.36;79.87;100904.89;105079;1290;71437;-72
2023/02/17 05:25:55;;;;;;;;;;;;;;;5.36;79.96;100899.23;105088;1288;61675;-72
2023/02/17 05:28:41;;;;;;;;;;;;;;;5.35;79.99;100900.08;105027;1288;61307;-72
2023/02/17 05:31:27;;;;;;;;;;;;;;;5.35;80.01;100892.39;105085;1288;73195;-72
2023/02/17 05:34:14;;;;;;;;;;;;;;;5.35;80.07;100883.84;105047;1288;70011;-72
2023/02/17 05:37:00;;;;;;;;;;;;;;;5.35;80.09;100886.40;105084;1292;71458;-71
2023/02/17 05:39:46;;;;;;;;;;;;;;;5.35;80.16;100891.36;105050;1288;61282;-72
2023/02/17 05:42:32;;;;;;;;;;;;;;;5.34;80.20;100885.55;105078;1288;61268;-73
2023/02/17 05:45:18;;;;;;;;;;;;;;;5.33;80.14;100883.48;105059;1288;79230;-72
2023/02/17 05:48:04;;;;;;;;;;;;;;;5.33;80.18;100880.23;105100;1288;67956;-72
2023/02/17 05:50:50;;;;;;;;;;;;;;;5.32;80.28;100879.71;105065;1288;71200;-72
2023/02/17 05:53:36;;;;;;;;;;;;;;;5.33;80.31;100876.13;105128;1288;61111;-73
2023/02/17 05:56:22;;;;;;;;;;;;;;;5.33;80.32;100875.63;105034;1288;59420;-72
2023/02/17 05:59:08;;;;;;;;;;;;;;;5.34;80.25;100872.55;105107;1288;74550;-73
2023/02/17 06:01:54;;;;;;;;;;;;;;;5.35;80.31;100871.36;105026;1290;67198;-72
2023/02/17 06:04:41;;;;;;;;;;;;;;;5.34;80.33;100871.70;105077;1288;71791;-72
2023/02/17 06:07:27;;;;;;;;;;;;;;;5.35;80.38;100872.21;105080;1288;58819;-72
2023/02/17 06:10:13;;;;;;;;;;;;;;;5.36;80.49;100872.40;105107;1287;61136;-72
2023/02/17 06:12:59;;;;;;;;;;;;;;;5.37;80.42;100873.08;105142;1288;73838;-72
2023/02/17 06:15:46;;;;;;;;;;;;;;;5.38;80.44;100872.25;105146;1293;68574;-72
2023/02/17 06:18:32;;;;;;;;;;;;;;;5.39;80.42;100870.20;105137;1290;72650;-72
2023/02/17 06:21:18;;;;;;;;;;;;;;;5.39;80.47;100873.11;105082;1288;59273;-72
2023/02/17 06:24:04;;;;;;;;;;;;;;;5.40;80.45;100873.29;105113;1290;61229;-72
2023/02/17 06:26:50;;;;;;;;;;;;;;;5.40;80.47;100875.01;105003;1288;77373;-72
2023/02/17 06:29:36;;;;;;;;;;;;;;;5.41;80.51;100876.03;105145;1288;69012;-72
2023/02/17 06:32:22;;;;;;;;;;;;;;;5.42;80.49;100878.09;105187;1288;72504;-73
2023/02/17 06:35:08;;;;;;;;;;;;;;;5.42;80.49;100878.44;105234;1288;59696;-73
2023/02/17 06:37:54;;;;;;;;;;;;;;;5.42;80.58;100873.66;105168;1288;59958;-73
2023/02/17 06:40:40;;;;;;;;;;;;;;;5.43;80.62;100869.73;105234;1288;73237;-72
2023/02/17 06:43:27;;;;;;;;;;;;;;;5.43;80.60;100867.33;105187;1288;67210;-72
2023/02/17 06:46:13;;;;;;;;;;;;;;;5.43;80.69;100861.36;105016;1288;70604;-72
2023/02/17 06:49:00;;;;;;;;;;;;;;;5.44;80.70;100849.56;105106;1288;64788;-72
2023/02/17 06:51:46;;;;;;;;;;;;;;;5.44;80.75;100846.99;105170;1290;61267;-72
2023/02/17 06:54:32;;;;;;;;;;;;;;;5.44;80.82;100852.65;105185;1288;73925;-72
2023/02/17 06:57:18;;;;;;;;;;;;;;;5.45;80.86;100857.77;105216;1288;68354;-72
2023/02/17 07:00:05;;;;;;;;;;;;;;;5.45;80.88;100849.05;105102;1288;72038;-72
2023/02/17 07:02:51;;;;;;;;;;;;;;;5.46;80.97;100844.27;105180;1288;60041;-72
2023/02/17 07:05:39;;;;;;;;;;;;;;;5.46;80.97;100846.33;105010;1288;61195;-72
2023/02/17 07:08:25;;;;;;;;;;;;;;;5.48;81.02;100847.20;105095;1288;73254;-72
2023/02/17 07:11:12;;;;;;;;;;;;;;;5.48;81.00;100847.55;105017;1288;67281;-72
2023/02/17 07:13:58;;;;;;;;;;;;;;;5.50;81.00;100844.14;105049;1288;71232;-72
2023/02/17 07:16:44;;;;;;;;;;;;;;;5.50;80.99;100837.98;105065;1288;61078;-72
2023/02/17 07:19:30;;;;;;;;;;;;;;;5.51;81.08;100836.98;105157;1288;61277;-72
2023/02/17 07:22:17;;;;;;;;;;;;;;;5.51;81.10;100831.51;105172;1288;73171;-72
2023/02/17 07:25:03;;;;;;;;;;;;;;;5.53;81.09;100832.04;105217;1287;67615;-72
2023/02/17 07:27:49;;;;;;;;;;;;;;;5.54;81.15;100830.33;105174;1288;71939;-72
2023/02/17 07:30:37;;;;;;;;;;;;;;;5.55;81.18;100825.55;105021;1288;61334;-72
2023/02/17 07:33:23;;;;;;;;;;;;;;;5.56;81.18;100828.47;105104;1288;59571;-73
2023/02/17 07:36:10;;;;;;;;;;;;;;;5.58;81.22;100820.27;105123;1287;73273;-72
2023/02/17 07:38:57;;;;;;;;;;;;;;;5.60;81.26;100825.08;105147;1288;67365;-72
2023/02/17 07:41:43;;;;;;;;;;;;;;;5.61;81.31;100823.38;105142;1288;71188;-72
2023/02/17 07:44:29;;;;;;;;;;;;;;;5.63;81.31;100823.56;105184;1288;61265;-72
2023/02/17 07:47:15;;;;;;;;;;;;;;;5.64;81.32;100824.25;105103;1288;61942;-72
2023/02/17 07:50:01;;;;;;;;;;;;;;;5.64;81.32;100825.11;105126;1290;75178;-72
2023/02/17 07:52:47;;;;;;;;;;;;;;;5.67;81.43;100819.83;105119;1288;69585;-72
2023/02/17 07:55:33;;;;;;;;;;;;;;;5.70;81.52;100819.00;105104;1288;71655;-72
2023/02/17 07:58:19;;;;;;;;;;;;;;;5.73;81.52;100816.08;105081;1288;59613;-72
2023/02/17 08:01:11;;;;;;;;;;;;;;;5.75;81.53;100815.06;105147;1288;61279;-72
2023/02/17 08:03:58;;;;;;;;;;;;;;;5.78;81.55;100810.80;105010;1293;73193;-72
2023/02/17 08:06:44;;;;;;;;;;;;;;;5.81;81.57;100809.46;105107;1291;70631;-72
2023/02/17 08:15:40;;;;;;;;;;;;;;;5.89;81.67;100787.80;105102;1287;61222;-72
2023/02/17 08:18:26;;;;;;;;;;;;;;;5.89;81.71;100781.48;105112;1288;73564;-72
2023/02/17 08:21:12;;;;;;;;;;;;;;;5.91;81.69;100791.43;105088;1288;68414;-72
2023/02/17 08:23:59;;;;;;;;;;;;;;;5.92;81.82;100791.95;105078;1288;72560;-72
2023/02/17 08:26:45;;;;;;;;;;;;;;;5.92;81.72;100794.86;104977;1290;59916;-72
2023/02/17 08:29:32;;;;;;;;;;;;;;;5.91;81.76;100788.17;105093;1288;61259;-72
2023/02/17 08:32:18;;;;;;;;;;;;;;;5.91;81.76;100776.54;105091;1288;73126;-73
2023/02/17 08:35:05;;;;;;;;;;;;;;;5.91;81.82;100773.13;105160;1288;68898;-73
2023/02/17 08:37:51;;;;;;;;;;;;;;;5.91;81.91;100771.23;105040;1288;73779;-72
2023/02/17 08:40:38;;;;;;;;;;;;;;;5.91;81.96;100771.41;105081;1288;61288;-72
2023/02/17 08:43:24;;;;;;;;;;;;;;;5.92;82.00;100767.81;105112;1288;61182;-72
2023/02/17 08:46:11;;;;;;;;;;;;;;;5.91;82.00;100761.31;105111;1288;73141;-72
2023/02/17 08:48:57;;;;;;;;;;;;;;;5.91;82.18;100759.60;105096;1290;67498;-72
2023/02/17 08:51:44;;;;;;;;;;;;;;;5.92;82.09;100755.67;105069;1289;72135;-72
2023/02/17 08:54:30;;;;;;;;;;;;;;;5.93;82.17;100751.58;105137;1292;61141;-72
2023/02/17 08:57:17;;;;;;;;;;;;;;;5.94;82.13;100752.95;105083;1288;60424;-72
2023/02/17 09:00:05;;;;;;;;;;;;;;;5.97;82.17;100749.54;105100;1287;73302;-73
2023/02/17 09:02:51;;;;;;;;;;;;;;;6.01;82.23;100746.47;105109;1292;69866;-72
2023/02/17 09:05:37;;;;;;;;;;;;;;;6.03;82.29;100748.88;97523;1290;5003920;-73
2023/02/17 09:08:23;;;;;;;;;;;;;;;6.06;82.34;100746.16;104954;1288;61684;-73
2023/02/17 09:11:09;;;;;;;;;;;;;;;6.09;82.36;100739.16;104967;1291;59675;-73
2023/02/17 09:13:55;;;;;;;;;;;;;;;6.12;82.39;100739.00;105012;1291;73357;-72
2023/02/17 09:16:42;;;;;;;;;;;;;;;6.14;82.43;100738.50;105095;1290;68477;-72
2023/02/17 09:19:28;;;;;;;;;;;;;;;6.16;82.45;100737.98;105017;1291;71224;-73
2023/02/17 09:22:16;;;;;;;;;;;;;;;6.18;82.44;100732.52;104929;1291;61241;-73
2023/02/17 09:25:03;;;;;;;;;;;;;;;6.21;82.54;100725.00;105028;1292;61084;-72
2023/02/17 09:27:49;;;;;;;;;;;;;;;6.23;82.60;100719.52;105040;1290;75962;-72
2023/02/17 09:30:36;;;;;;;;;;;;;;;6.28;82.69;100720.71;105057;1290;67262;-72
2023/02/17 09:33:22;;;;;;;;;;;;;;;6.31;82.64;100719.35;104869;1291;71290;-73
2023/02/17 09:36:09;;;;;;;;;;;;;;;6.34;82.71;100716.80;105072;1290;61162;-72
2023/02/17 09:38:56;;;;;;;;;;;;;;;6.37;82.69;100714.58;104916;1293;61210;-72
2023/02/17 09:41:48;;;;;;;;;;;;;;;6.42;82.70;100707.57;105038;1290;77957;-72
2023/02/17 09:44:39;;;;;;;;;;;;;;;6.43;82.85;100702.27;105058;1291;67387;-72
2023/02/17 09:47:28;;;;;;;;;;;;;;;6.46;82.93;100699.02;105033;1290;71589;-72
2023/02/17 09:50:17;;;;;;;;;;;;;;;6.49;82.87;100696.98;105040;1289;63040;-72
2023/02/17 09:53:30;;;;;;;;;;;;;;;6.53;82.92;100693.38;105017;1289;61087;-72
2023/02/17 09:56:44;;;;;;;;;;;;;;;6.55;82.91;100679.69;104933;1291;75389;-72
2023/02/17 09:59:51;;;;;;;;;;;;;;;6.59;82.88;100668.22;105099;1289;69279;-72
2023/02/17 10:02:47;;;;;;;;;;;;;;;6.63;82.95;100668.73;104352;1302;71419;-72
2023/02/17 10:05:35;;;;;;;;;;;;;;;6.67;82.96;100669.60;105401;1299;59207;-73
2023/02/17 10:08:23;;;;;;;;;;;;;;;6.72;83.09;100662.92;105422;1296;60739;-73
2023/02/17 10:11:22;;;;;;;;;;;;;;;6.76;83.01;100660.34;105500;1296;75053;-73
2023/02/17 10:14:16;;;;;;;;;;;;;;;6.80;83.10;100656.21;105471;1296;68576;-73
2023/02/17 10:17:05;;;;;;;;;;;;;;;6.85;83.12;100652.27;105412;1296;72557;-73
2023/02/17 10:20:06;;;;;;;;;;;;;;;6.90;83.13;100641.82;105445;1296;59253;-73
2023/02/17 10:22:58;;;;;;;;;;;;;;;6.96;83.25;100635.81;105456;1296;59087;-73
2023/02/17 10:26:03;;;;;;;;;;;;;;;7.01;83.25;100634.61;105474;1296;73428;-73
2023/02/17 10:28:53;;;;;;;;;;;;;;;7.07;83.32;100626.20;105441;1296;67312;-73
2023/02/17 10:32:05;;;;;;;;;;;;;;;7.12;83.32;100620.89;105390;1300;70514;-73
2023/02/17 10:35:09;;;;;;;;;;;;;;;7.16;83.35;100608.02;105287;1296;59128;-73
2023/02/17 10:38:17;;;;;;;;;;;;;;;7.20;83.35;100604.94;105396;1296;60057;-73
2023/02/17 10:41:04;;;;;;;;;;;;;;;7.23;83.39;100599.60;105997;1289;74010;-73
2023/02/17 10:43:51;;;;;;;;;;;;;;;7.26;83.42;100596.52;106246;1289;66420;-73
2023/02/17 10:46:39;;;;;;;;;;;;;;;7.27;83.33;100587.23;106184;1290;71411;-73
2023/02/17 10:49:34;;;;;;;;;;;;;;;7.30;83.50;100583.95;106119;1289;58929;-75
2023/02/17 10:52:35;;;;;;;;;;;;;;;7.34;83.52;100569.19;106154;1289;59040;-75
2023/02/17 10:55:21;;;;;;;;;;;;;;;7.38;83.60;100555.45;106162;1290;73357;-75
2023/02/17 10:58:13;;;;;;;;;;;;;;;7.41;83.59;100537.61;106189;1291;68345;-75
2023/02/17 11:01:01;;;;;;;;;;;;;;;7.46;83.52;100533.65;106160;1291;72625;-75
2023/02/17 11:03:57;;;;;;;;;;;;;;;7.49;83.74;100529.34;106157;1289;58910;-75
2023/02/17 11:06:47;;;;;;;;;;;;;;;7.54;83.76;100531.20;106121;1289;59442;-75
2023/02/17 11:09:35;;;;;;;;;;;;;;;7.58;83.68;100520.73;106158;1289;73404;-75
2023/02/17 11:12:23;;;;;;;;;;;;;;;7.62;83.78;100508.52;106204;1293;68277;-75
2023/02/17 11:15:17;;;;;;;;;;;;;;;7.66;83.71;100497.52;106231;1288;72132;-76
2023/02/17 11:18:11;;;;;;;;;;;;;;;7.70;83.77;100489.27;106188;1290;59408;-76
2023/02/17 11:21:08;;;;;;;;;;;;;;;7.71;83.89;100480.33;106007;1289;60406;-75
2023/02/17 11:23:57;;;;;;;;;;;;;;;7.73;83.79;100470.54;105990;1290;73583;-75
2023/02/17 11:26:53;;;;;;;;;;;;;;;7.76;84.00;100457.14;106065;1291;69105;-76
2023/02/17 11:29:39;;;;;;;;;;;;;;;7.77;83.93;100452.66;106012;1289;72889;-76
2023/02/17 11:32:30;;;;;;;;;;;;;;;7.78;83.93;100447.16;105967;1289;59031;-76
2023/02/17 11:35:54;;;;;;;;;;;;;;;7.81;84.05;100440.61;106195;1293;59897;-76
2023/02/17 11:38:43;;;;;;;;;;;;;;;7.83;84.06;100432.70;104790;1298;73456;-76
2023/02/17 11:41:37;;;;;;;;;;;;;;;7.85;84.04;100430.45;104239;1296;67968;-76
2023/02/17 11:44:24;;;;;;;;;;;;;;;7.86;84.03;100423.22;104333;1296;71326;-76
2023/02/17 11:47:16;;;;;;;;;;;;;;;7.87;84.17;100424.08;104334;1300;61257;-76
2023/02/17 11:50:32;;;;;;;;;;;;;;;7.88;84.08;100416.52;104362;1296;61177;-76
2023/02/17 11:53:50;;;;;;;;;;;;;;;7.87;84.15;100409.66;103945;1302;74299;-75
2023/02/17 11:56:39;;;;;;;;;;;;;;;7.87;84.23;100397.98;96258;1310;10002287;-76
2023/02/17 11:59:55;;;;;;;;;;;;;;;7.89;84.29;100395.06;103326;1308;61371;-75
2023/02/17 12:02:47;;;;;;;;;;;;;;;7.89;84.25;100391.28;102905;1314;74618;-75
2023/02/17 12:06:03;;;;;;;;;;;;;;;7.89;84.34;100377.04;102865;1314;68447;-75
2023/02/17 12:08:49;;;;;;;;;;;;;;;7.90;84.32;100373.77;102407;1314;71342;-76
2023/02/17 12:11:36;;;;;;;;;;;;;;;7.91;84.36;100365.86;102805;1313;62032;-76
2023/02/17 12:14:22;;;;;;;;;;;;;;;7.92;84.44;100358.47;102915;1313;61414;-76
2023/02/17 12:17:41;;;;;;;;;;;;;;;7.94;84.44;100357.94;102929;1317;73354;-76
2023/02/17 12:20:30;;;;;;;;;;;;;;;7.95;84.40;100351.41;103453;1318;69576;-76
2023/02/17 12:23:35;;;;;;;;;;;;;;;7.96;84.49;100346.59;103487;1319;72654;-76
2023/02/17 12:26:35;;;;;;;;;;;;;;;7.97;84.46;100345.20;103222;1319;59577;-74
2023/02/17 12:29:44;;;;;;;;;;;;;;;7.97;84.51;100334.91;102478;1317;60049;-74
2023/02/17 12:32:57;;;;;;;;;;;;;;;7.99;84.58;100326.14;102449;1317;74399;-74
2023/02/17 12:35:51;;;;;;;;;;;;;;;8.00;84.67;100320.11;102497;1317;68646;-74
2023/02/17 12:38:42;;;;;;;;;;;;;;;8.03;84.61;100307.40;102699;1311;72347;-74
2023/02/17 12:41:37;;;;;;;;;;;;;;;8.05;84.81;100298.63;102961;1314;61015;-74
2023/02/17 12:44:33;;;;;;;;;;;;;;;8.07;84.74;100293.44;103016;1314;61152;-74
2023/02/17 12:47:42;;;;;;;;;;;;;;;8.08;84.77;100286.05;103776;1305;72312;-74
2023/02/17 12:50:36;;;;;;;;;;;;;;;8.10;84.80;100281.91;103752;1304;68797;-74
2023/02/17 12:53:41;;;;;;;;;;;;;;;8.11;84.88;100277.60;103814;1304;71487;-74
2023/02/17 12:56:33;;;;;;;;;;;;;;;8.12;84.92;100267.11;104063;1295;59778;-74
2023/02/17 12:59:38;;;;;;;;;;;;;;;8.14;84.90;100256.11;104395;1297;61169;-73
2023/02/17 13:02:25;;;;;;;;;;;;;;;8.17;84.87;100252.13;104382;1296;74273;-73
2023/02/17 13:05:37;;;;;;;;;;;;;;;8.18;84.95;100246.79;104325;1297;70206;-73
2023/02/17 13:08:28;;;;;;;;;;;;;;;8.19;85.06;100237.51;104331;1296;71479;-73
2023/02/17 13:11:25;;;;;;;;;;;;;;;8.22;85.05;100238.50;105109;1291;59197;-74
2023/02/17 13:14:25;;;;;;;;;;;;;;;8.24;85.03;100233.50;105067;1289;59984;-73
2023/02/17 13:17:40;;;;;;;;;;;;;;;8.26;85.05;100218.88;104901;1289;73203;-73
2023/02/17 13:20:37;;;;;;;;;;;;;;;8.27;85.12;100200.66;104602;1289;67414;-74
2023/02/17 13:23:28;;;;;;;;;;;;;;;8.28;85.29;100195.83;104932;1291;72470;-74
2023/02/17 13:26:16;;;;;;;;;;;;;;;8.28;85.24;100180.55;105110;1289;61059;-74
2023/02/17 13:29:21;;;;;;;;;;;;;;;8.27;85.28;100171.64;105188;1291;59250;-74
2023/02/17 13:32:10;;;;;;;;;;;;;;;8.26;85.31;100160.33;104949;1290;74442;-74
2023/02/17 13:35:19;;;;;;;;;;;;;;;8.25;85.42;100148.66;105074;1289;70047;-73
2023/02/17 13:38:09;;;;;;;;;;;;;;;8.25;85.36;100137.83;104930;1289;71326;-74
2023/02/17 13:40:59;;;;;;;;;;;;;;;8.25;85.39;100134.91;104878;1293;61041;-74
2023/02/17 13:43:46;;;;;;;;;;;;;;;8.26;85.39;100124.77;105137;1291;60412;-74
2023/02/17 13:46:36;;;;;;;;;;;;;;;8.27;85.29;100118.41;105103;1293;74436;-74
2023/02/17 13:49:23;;;;;;;;;;;;;;;8.27;85.46;100111.54;104936;1289;67444;-74
2023/02/17 13:52:09;;;;;;;;;;;;;;;8.28;85.43;100101.39;104868;1291;71373;-74
2023/02/17 13:54:59;;;;;;;;;;;;;;;8.29;85.52;100092.61;105098;1289;61321;-73
2023/02/17 13:57:50;;;;;;;;;;;;;;;8.29;85.43;100085.06;105121;1290;63975;-74
2023/02/17 14:00:37;;;;;;;;;;;;;;;8.29;85.59;100085.07;104985;1293;74077;-74
2023/02/17 14:03:23;;;;;;;;;;;;;;;8.30;85.61;100072.34;105151;1290;67364;-74
2023/02/17 14:06:11;;;;;;;;;;;;;;;8.31;85.56;100060.64;105125;1291;71215;-74
2023/02/17 14:08:58;;;;;;;;;;;;;;;8.31;85.51;100050.52;105047;1288;61263;-74
2023/02/17 14:11:44;;;;;;;;;;;;;;;8.32;85.58;100052.89;105017;1293;59690;-73
2023/02/17 14:14:33;;;;;;;;;;;;;;;8.32;85.66;100050.32;105115;1290;76109;-73
2023/02/17 14:17:30;;;;;;;;;;;;;;;8.32;85.68;100045.34;104995;1293;69999;-73
2023/02/17 14:20:27;;;;;;;;;;;;;;;8.33;85.73;100039.33;104772;1291;71517;-73
2023/02/17 14:23:14;;;;;;;;;;;;;;;8.33;85.82;100032.46;104947;1291;63100;-74
2023/02/17 14:26:08;;;;;;;;;;;;;;;8.34;85.79;100024.73;104833;1293;61247;-74
2023/02/17 14:28:56;;;;;;;;;;;;;;;8.35;85.85;100027.62;105066;1291;73416;-74
2023/02/17 14:31:50;;;;;;;;;;;;;;;8.36;85.85;100034.48;104894;1293;67170;-73
2023/02/17 14:34:36;;;;;;;;;;;;;;;8.36;85.92;100033.79;106092;1290;72948;-74
2023/02/17 14:37:23;;;;;;;;;;;;;;;8.36;85.90;100028.64;106011;1290;59032;-74